This is the latest recevied weather packets stored in our database for station/object KP4OZ. If no packets are shown the sender has not sent any weather packets the latest 10 day(s).
| Time | Temp. | Humidity | Pressure | Rain* | Wind** | Luminosity | Snow |
|---|---|---|---|---|---|---|---|
| 1777568999 | 29.44° C | 72% | 1012.6 hPa | 0 mm | - | - | - |
| 1777568695 | 30° C | 70% | 1012.8 hPa | 0 mm | - | - | - |
| 1777568393 | 30° C | 71% | 1012.8 hPa | 0 mm | - | - | - |
| 1777568090 | 30° C | 70% | 1012.8 hPa | 0 mm | - | - | - |
| 1777567786 | 30° C | 69% | 1012.7 hPa | 0 mm | - | - | - |
| 1777567483 | 30° C | 70% | 1013 hPa | 0 mm | - | - | - |
| 1777567181 | 30° C | 69% | 1013 hPa | 0 mm | - | - | - |
| 1777566878 | 30.56° C | 70% | 1012.9 hPa | 0 mm | - | - | - |
| 1777566576 | 31.11° C | 69% | 1013.1 hPa | 0 mm | - | - | - |
| 1777566273 | 30.56° C | 68% | 1013 hPa | 0 mm | - | - | - |
| 1777565971 | 31.67° C | 66% | 1013.1 hPa | 0 mm | - | - | - |
| 1777565666 | 32.78° C | 49% | 1013.1 hPa | 0 mm | - | - | - |
| 1777565363 | 32.78° C | 48% | 1013.3 hPa | 0 mm | - | - | - |
| 1777565059 | 32.78° C | 52% | 1013.1 hPa | 0 mm | - | - | - |
| 1777564755 | 31.67° C | 54% | 1013.1 hPa | 0 mm | - | - | - |
| 1777564449 | 31.67° C | 65% | 1013 hPa | 0 mm | - | - | - |
| 1777564146 | 32.22° C | 54% | 1013 hPa | 0 mm | - | - | - |
| 1777563842 | 32.22° C | 54% | 1013.1 hPa | 0 mm | - | - | - |
| 1777563538 | 32.22° C | 53% | 1013 hPa | 0 mm | - | - | - |
| 1777563237 | 32.22° C | 54% | 1013.3 hPa | 0 mm | - | - | - |
| 1777562935 | 32.78° C | 52% | 1013.3 hPa | 0 mm | - | - | - |
| 1777562630 | 32.22° C | 53% | 1013.3 hPa | 0 mm | - | - | - |
| 1777562330 | 32.22° C | 55% | 1013.3 hPa | 0 mm | - | - | - |
| 1777562026 | 31.67° C | 58% | 1013.3 hPa | 0 mm | - | - | - |
| 1777561723 | 31.67° C | 56% | 1013.3 hPa | 0 mm | - | - | - |
* Rain latest hour (hover to see other rain measurements)
** Current wind speed in m/s (hover to see current wind gust speed)